Time;durP1;ratioP1;P1;durP2;ratioP2;P2;SDS_P1;SDS_P2;PMS_P1;PMS_P2;Temp;Humidity;BMP_temperature;BMP_pressure;BME280_temperature;BME280_humidity;BME280_pressure;Samples;Min_cycle;Max_cycle;Signal;HPM_P1;HPM_P2
2023/11/09 00:01:14;;;;;;;2.00;1.88;;;;;;;5.82;81.75;99803.03;5054968;28;20132;-72
2023/11/09 00:03:44;;;;;;;1.33;1.10;;;;;;;5.71;81.47;99790.13;5054811;28;20055;-71
2023/11/09 00:06:13;;;;;;;1.13;1.08;;;;;;;5.84;81.54;99802.28;5054876;28;20517;-70
2023/11/09 00:08:43;;;;;;;1.30;1.20;;;;;;;5.63;81.20;99778.16;5054648;28;20045;-69
2023/11/09 00:11:12;;;;;;;1.40;1.33;;;;;;;5.67;81.68;99798.50;5054903;28;20219;-69
2023/11/09 00:13:40;;;;;;;2.23;1.80;;;;;;;5.55;81.13;99778.00;5054765;28;20079;-71
2023/11/09 00:16:12;;;;;;;;;;;;;;;5.68;81.59;99796.84;5055214;28;20033;-69
2023/11/09 00:18:42;;;;;;;2.40;1.83;;;;;;;5.69;81.32;99793.47;5054992;28;19921;-69
2023/11/09 00:21:12;;;;;;;1.58;1.48;;;;;;;5.55;81.12;99797.38;5054558;28;20049;-72
2023/11/09 00:23:41;;;;;;;0.80;0.80;;;;;;;5.39;81.58;99775.97;5054949;28;20060;-70
2023/11/09 00:26:09;;;;;;;0.40;0.40;;;;;;;5.54;81.48;99810.88;5054837;28;20398;-71
2023/11/09 00:28:50;;;;;;;1.20;1.10;;;;;;;5.50;81.63;99783.78;5054454;28;20103;-70
2023/11/09 00:31:19;;;;;;;1.80;1.42;;;;;;;5.61;81.60;99782.34;5053523;28;20136;-71
2023/11/09 00:33:48;;;;;;;1.35;1.25;;;;;;;5.75;81.15;99801.19;5053264;28;20399;-71
2023/11/09 00:36:19;;;;;;;4.27;3.07;;;;;;;5.67;81.41;99807.78;5054390;28;20048;-68
2023/11/09 00:38:49;;;;;;;4.13;1.85;;;;;;;5.57;81.62;99801.66;5054773;28;20055;-69
2023/11/09 00:41:18;;;;;;;0.77;0.77;;;;;;;5.59;81.15;99799.19;5054356;28;20045;-70
2023/11/09 00:43:46;;;;;;;1.63;1.52;;;;;;;5.55;81.22;99797.38;5036436;28;20503;-72
2023/11/09 00:46:15;;;;;;;1.52;1.42;;;;;;;5.50;80.88;99793.91;5054324;28;20095;-70
2023/11/09 00:48:44;;;;;;;2.38;1.10;;;;;;;5.25;80.82;99778.22;5054109;28;20040;-71
2023/11/09 00:51:13;;;;;;;;;;;;;;;5.31;81.13;99783.41;4984046;28;2026036;-72
2023/11/09 00:53:43;;;;;;;0.57;0.57;;;;;;;5.25;80.89;99783.28;5054153;28;19920;-68
2023/11/09 00:56:14;;;;;;;8.80;1.20;;;;;;;5.21;80.71;99791.59;5053974;28;20045;-71
2023/11/09 00:58:43;;;;;;;1.35;1.25;;;;;;;5.16;80.86;99783.06;5054112;28;20120;-69
2023/11/09 01:01:12;;;;;;;0.53;0.53;;;;;;;5.11;80.61;99794.75;5055338;28;20057;-71
2023/11/09 01:03:40;;;;;;;0.40;0.40;;;;;;;4.97;80.64;99786.00;5055091;28;20472;-71
2023/11/09 01:06:09;;;;;;;2.90;1.02;;;;;;;4.96;80.26;99786.84;5055229;28;20129;-70
2023/11/09 01:08:38;;;;;;;0.45;0.45;;;;;;;4.84;80.36;99785.69;5053669;28;20041;-68
2023/11/09 01:11:08;;;;;;;0.88;0.88;;;;;;;4.73;80.83;99787.94;5053623;28;20045;-71
2023/11/09 01:13:37;;;;;;;0.93;0.85;;;;;;;4.56;80.46;99782.47;5053673;28;20045;-71
2023/11/09 01:16:06;;;;;;;0.70;0.70;;;;;;;4.20;80.88;99727.69;5052779;28;20047;-69
2023/11/09 01:18:36;;;;;;;0.40;0.40;;;;;;;4.50;80.90;99777.28;5054743;28;20127;-70
2023/11/09 01:21:05;;;;;;;;;;;;;;;4.56;80.49;99787.53;5055124;28;20053;-68
2023/11/09 01:23:34;;;;;;;0.43;0.43;;;;;;;4.63;80.98;99774.22;5053502;28;19927;-71
2023/11/09 01:26:03;;;;;;;0.40;0.40;;;;;;;4.70;81.10;99770.19;5054646;28;20045;-68
2023/11/09 01:28:34;;;;;;;1.75;0.95;;;;;;;4.67;80.79;99760.00;5054868;28;20442;-71
2023/11/09 01:31:03;;;;;;;0.75;0.75;;;;;;;4.51;81.37;99717.50;5054489;28;20057;-71
2023/11/09 01:33:32;;;;;;;0.77;0.77;;;;;;;4.80;81.00;99761.16;5053776;28;20041;-71
2023/11/09 01:36:01;;;;;;;0.40;0.40;;;;;;;4.82;81.40;99755.31;5053066;28;20095;-72
2023/11/09 01:38:30;;;;;;;2.13;1.55;;;;;;;4.79;81.24;99757.75;5053111;28;20041;-69
2023/11/09 01:41:02;;;;;;;0.68;0.68;;;;;;;4.72;81.15;99748.34;5053083;28;20033;-71
2023/11/09 01:43:33;;;;;;;0.30;0.30;;;;;;;4.61;80.80;99759.84;5054615;28;20065;-70
2023/11/09 01:46:02;;;;;;;0.60;0.60;;;;;;;4.55;80.86;99764.75;5054471;28;20399;-69
2023/11/09 01:48:33;;;;;;;0.52;0.52;;;;;;;4.51;80.56;99765.50;5054068;28;20045;-69
2023/11/09 01:51:03;;;;;;;0.70;0.70;;;;;;;4.33;80.92;99737.25;5052956;28;20755;-70
2023/11/09 01:53:32;;;;;;;13.90;2.05;;;;;;;4.48;80.99;99765.44;5053500;28;20086;-70
2023/11/09 01:56:01;;;;;;;0.70;0.70;;;;;;;4.57;81.03;99765.66;5053947;28;20047;-69
2023/11/09 01:58:30;;;;;;;0.68;0.68;;;;;;;4.59;80.93;99762.34;5052742;28;20041;-72
2023/11/09 02:01:05;;;;;;;0.70;0.70;;;;;;;4.68;81.36;99749.06;5052753;28;20072;-72
2023/11/09 02:03:34;;;;;;;0.70;0.70;;;;;;;4.69;80.83;99753.31;5054957;28;20072;-71
2023/11/09 02:06:03;;;;;;;1.45;0.95;;;;;;;4.70;80.82;99760.91;5053797;28;20056;-71
2023/11/09 02:08:33;;;;;;;1.25;1.15;;;;;;;4.55;81.07;99739.50;5052849;28;20048;-69
2023/11/09 02:11:02;;;;;;;1.95;1.23;;;;;;;4.60;80.80;99758.16;5053282;28;20037;-71
2023/11/09 02:13:32;;;;;;;1.38;1.27;;;;;;;4.53;80.49;99762.22;5054047;28;20041;-70
2023/11/09 02:16:06;;;;;;;0.60;0.60;;;;;;;4.43;80.61;99745.09;5052750;28;20055;-69
2023/11/09 02:18:37;;;;;;;0.88;0.88;;;;;;;4.45;80.80;99757.78;5052816;28;20076;-71
2023/11/09 02:21:06;;;;;;;0.50;0.50;;;;;;;4.36;80.71;99766.00;5052673;28;20505;-69
2023/11/09 02:23:38;;;;;;;0.75;0.75;;;;;;;4.35;80.79;99765.94;5052362;28;20064;-70
2023/11/09 02:26:09;;;;;;;0.50;0.50;;;;;;;4.28;80.44;99759.00;5052275;28;20132;-71
2023/11/09 02:28:37;;;;;;;0.35;0.35;;;;;;;4.25;80.29;99758.97;5052387;28;20415;-69
2023/11/09 02:31:06;;;;;;;0.30;0.30;;;;;;;4.03;80.75;99742.41;5053492;28;20114;-69
2023/11/09 02:33:35;;;;;;;0.70;0.70;;;;;;;4.08;80.86;99761.03;5053511;28;20636;-69
2023/11/09 02:36:04;;;;;;;2.42;1.20;;;;;;;3.97;80.00;99752.31;5053606;28;20041;-71
2023/11/09 02:38:33;;;;;;;0.38;0.38;;;;;;;3.94;80.35;99758.13;5053322;28;20092;-71
2023/11/09 02:41:02;;;;;;;2.25;1.77;;;;;;;3.83;80.45;99754.50;5052190;28;20041;-68
2023/11/09 02:43:32;;;;;;;0.88;0.82;;;;;;;3.90;80.22;99765.59;5053229;28;20047;-68
2023/11/09 02:46:01;;;;;;;1.35;0.90;;;;;;;3.89;80.26;99764.72;5053303;28;20045;-70
2023/11/09 02:48:30;;;;;;;0.43;0.43;;;;;;;3.88;80.29;99750.41;5052331;28;20120;-71
2023/11/09 02:50:59;;;;;;;0.63;0.63;;;;;;;3.91;80.84;99762.28;5051904;28;20080;-72
2023/11/09 02:53:27;;;;;;;0.70;0.70;;;;;;;3.89;80.36;99753.78;5052093;28;20048;-71
2023/11/09 02:55:56;;;;;;;0.68;0.68;;;;;;;3.88;81.01;99747.91;5053195;28;20132;-70
2023/11/09 02:58:24;;;;;;;0.63;0.63;;;;;;;3.89;80.56;99729.41;5053503;28;20049;-71
2023/11/09 03:00:55;;;;;;;1.25;1.15;;;;;;;4.06;80.98;99753.41;5053044;28;20521;-71
2023/11/09 03:03:24;;;;;;;0.32;0.32;;;;;;;4.06;80.95;99748.38;5053720;28;20041;-71
2023/11/09 03:05:54;;;;;;;0.40;0.40;;;;;;;4.10;80.76;99740.88;5053227;28;20044;-68
2023/11/09 03:08:23;;;;;;;0.50;0.50;;;;;;;4.07;80.96;99745.03;5052169;28;20041;-69
2023/11/09 03:10:52;;;;;;;0.50;0.50;;;;;;;4.00;80.77;99745.69;5052850;28;20052;-69
2023/11/09 03:13:22;;;;;;;1.25;0.85;;;;;;;4.04;81.09;99750.00;5053375;28;20045;-70
2023/11/09 03:15:50;;;;;;;;;;;;;;;4.00;80.76;99760.84;5052261;28;20487;-71
2023/11/09 03:18:21;;;;;;;0.40;0.40;;;;;;;3.84;80.57;99741.03;5051810;28;19932;-68
2023/11/09 03:20:50;;;;;;;0.43;0.43;;;;;;;3.90;80.85;99738.69;5051781;28;20134;-71
2023/11/09 03:23:20;;;;;;;;;;;;;;;3.91;80.93;99732.81;5053879;28;20045;-71
2023/11/09 03:25:48;;;;;;;0.57;0.57;;;;;;;3.81;80.83;99740.13;5051707;28;19920;-69
2023/11/09 03:28:17;;;;;;;1.80;1.00;;;;;;;3.81;81.50;99735.94;5052877;28;20041;-68
2023/11/09 03:30:46;;;;;;;0.60;0.60;;;;;;;3.90;81.20;99742.88;5052880;28;20136;-68
2023/11/09 03:33:16;;;;;;;0.50;0.50;;;;;;;3.92;81.02;99739.59;5051901;28;20098;-71
2023/11/09 03:35:46;;;;;;;1.60;0.97;;;;;;;3.97;80.98;99732.97;5053196;28;20052;-71
2023/11/09 03:38:15;;;;;;;0.50;0.50;;;;;;;4.00;81.63;99717.06;5052889;28;20049;-71
2023/11/09 03:40:43;;;;;;;0.37;0.37;;;;;;;4.08;81.33;99726.53;5055950;28;20569;-70
2023/11/09 03:43:11;;;;;;;0.30;0.30;;;;;;;4.02;81.08;99716.28;5056869;28;20041;-69
2023/11/09 03:45:40;;;;;;;2.15;0.98;;;;;;;4.01;80.98;99718.75;5055396;28;20132;-73
2023/11/09 03:48:09;;;;;;;0.55;0.55;;;;;;;3.89;81.08;99718.44;5054776;28;20048;-71
2023/11/09 03:50:38;;;;;;;0.50;0.50;;;;;;;3.91;80.69;99720.19;5056456;28;20059;-71
2023/11/09 03:53:08;;;;;;;0.95;0.93;;;;;;;4.01;80.81;99729.72;5056424;28;20526;-71
2023/11/09 03:55:37;;;;;;;0.63;0.63;;;;;;;3.95;80.87;99724.53;5056279;28;20077;-72
2023/11/09 03:58:05;;;;;;;0.82;0.82;;;;;;;3.98;80.33;99728.78;5056585;28;20045;-71
2023/11/09 04:00:34;;;;;;;1.50;1.40;;;;;;;3.99;80.63;99720.38;5056101;28;20033;-70
2023/11/09 04:03:03;;;;;;;0.50;0.50;;;;;;;3.88;80.42;99715.09;5056334;28;20047;-72
2023/11/09 04:05:32;;;;;;;0.40;0.40;;;;;;;3.98;80.30;99739.72;5055969;28;20364;-72
2023/11/09 04:08:01;;;;;;;0.38;0.38;;;;;;;3.84;80.79;99725.06;5056431;28;20052;-72
2023/11/09 04:10:31;;;;;;;0.97;0.80;;;;;;;3.72;80.35;99728.09;5056051;28;20540;-72
2023/11/09 04:13:00;;;;;;;0.75;0.75;;;;;;;3.72;80.20;99715.47;5055962;28;20052;-72
2023/11/09 04:15:28;;;;;;;0.40;0.40;;;;;;;3.68;80.22;99726.31;5055900;28;20055;-72
2023/11/09 04:17:57;;;;;;;0.50;0.50;;;;;;;3.64;80.58;99719.47;5056230;28;20033;-72
2023/11/09 04:20:26;;;;;;;0.35;0.35;;;;;;;3.68;80.72;99723.78;5055773;28;20289;-72
2023/11/09 04:22:55;;;;;;;0.40;0.40;;;;;;;3.56;80.74;99718.41;5055688;28;20041;-71
2023/11/09 04:25:23;;;;;;;1.38;1.05;;;;;;;3.58;81.00;99719.28;5055950;28;20289;-70
2023/11/09 04:27:54;;;;;;;1.17;0.65;;;;;;;3.53;80.99;99703.16;5055871;28;20037;-72
2023/11/09 04:30:28;;;;;;;0.30;0.30;;;;;;;3.46;80.64;99718.94;5055668;28;20049;-73
2023/11/09 04:32:57;;;;;;;1.70;1.60;;;;;;;3.41;80.60;99707.88;5055520;28;20491;-72
2023/11/09 04:35:27;;;;;;;3.10;1.17;;;;;;;3.38;80.98;99710.34;5055533;28;20045;-72
2023/11/09 04:37:55;;;;;;;2.77;2.57;;;;;;;3.31;80.36;99710.97;5055449;28;20076;-71
2023/11/09 04:40:25;;;;;;;2.03;1.60;;;;;;;3.30;81.27;99694.13;5055439;28;20499;-70
2023/11/09 04:42:56;;;;;;;0.73;0.73;;;;;;;3.17;80.95;99676.91;5055307;28;20052;-69
2023/11/09 04:45:25;;;;;;;1.65;1.55;;;;;;;3.32;81.54;99705.09;5055647;28;20067;-72
2023/11/09 04:47:57;;;;;;;0.75;0.75;;;;;;;3.32;80.96;99697.53;5054263;28;20049;-71
2023/11/09 04:50:30;;;;;;;1.17;1.13;;;;;;;3.54;81.74;99704.88;5054859;28;20052;-70
2023/11/09 04:53:19;;;;;;;4.13;3.05;;;;;;;3.58;81.37;99710.84;5054693;28;20064;-71
2023/11/09 04:55:57;;;;;;;2.95;2.75;;;;;;;3.63;81.34;99691.66;5055287;28;20041;-70
2023/11/09 05:09:08;;;;;;;0.70;0.70;;;;;;;3.67;81.63;99701.88;5055100;28;20063;-70
2023/11/09 05:11:37;;;;;;;0.80;0.80;;;;;;;3.71;81.51;99702.81;5054841;28;20048;-72
2023/11/09 05:14:08;;;;;;;0.50;0.50;;;;;;;3.56;81.17;99688.13;5054756;28;20132;-71
2023/11/09 05:16:38;;;;;;;0.50;0.50;;;;;;;3.59;81.25;99698.31;5055423;28;20076;-73
2023/11/09 05:19:07;;;;;;;0.68;0.68;;;;;;;3.64;81.24;99716.94;5054969;28;20530;-71
2023/11/09 05:21:36;;;;;;;0.90;0.90;;;;;;;3.71;81.21;99708.72;5054640;28;20044;-70
2023/11/09 05:24:05;;;;;;;0.90;0.90;;;;;;;3.72;81.35;99699.50;5053647;28;20041;-69
2023/11/09 05:26:36;;;;;;;0.55;0.55;;;;;;;3.79;81.26;99726.59;5054824;28;20290;-71
2023/11/09 05:29:06;;;;;;;0.38;0.38;;;;;;;3.79;81.17;99716.50;5054402;28;20055;-72
2023/11/09 05:31:36;;;;;;;2.53;1.10;;;;;;;3.78;80.96;99708.06;5054904;28;20053;-69
2023/11/09 05:34:05;;;;;;;1.35;1.25;;;;;;;3.74;81.06;99708.78;5054271;28;20128;-74
2023/11/09 05:36:34;;;;;;;0.40;0.40;;;;;;;3.68;81.70;99708.63;5054639;28;20045;-72
2023/11/09 05:39:04;;;;;;;0.40;0.40;;;;;;;3.60;81.33;99700.00;5054617;28;20126;-70
2023/11/09 05:41:33;;;;;;;0.50;0.50;;;;;;;3.66;81.44;99720.38;5054274;28;20045;-73
2023/11/09 05:44:02;;;;;;;2.33;2.13;;;;;;;3.56;81.37;99710.81;5054159;28;20124;-72
2023/11/09 05:46:32;;;;;;;0.50;0.50;;;;;;;3.58;81.17;99721.81;5054124;28;20433;-70
2023/11/09 05:49:01;;;;;;;1.00;1.00;;;;;;;3.45;81.81;99714.72;5054099;28;20048;-70
2023/11/09 05:51:31;;;;;;;2.13;1.20;;;;;;;3.46;81.35;99708.84;5052598;28;20045;-70
2023/11/09 05:54:00;;;;;;;1.42;1.33;;;;;;;3.46;81.62;99706.34;5054033;28;20293;-71
2023/11/09 05:56:29;;;;;;;0.43;0.43;;;;;;;3.48;82.10;99704.72;5052792;28;20048;-71
2023/11/09 05:58:57;;;;;;;0.52;0.52;;;;;;;3.56;81.71;99703.25;5054524;28;20107;-69
2023/11/09 06:01:30;;;;;;;0.85;0.85;;;;;;;3.58;82.42;99694.06;5054781;28;20040;-71
2023/11/09 06:04:02;;;;;;;0.85;0.85;;;;;;;3.42;82.51;99694.47;5053547;28;20044;-72
2023/11/09 06:06:31;;;;;;;1.65;1.40;;;;;;;3.40;81.82;99670.88;5053638;28;20045;-67
2023/11/09 06:09:01;;;;;;;2.65;2.22;;;;;;;3.55;81.91;99680.53;5053720;28;20041;-70
2023/11/09 06:11:31;;;;;;;1.90;1.77;;;;;;;3.65;82.20;99688.38;5054298;28;20079;-69
2023/11/09 06:14:03;;;;;;;4.78;4.28;;;;;;;3.64;82.13;99676.56;5053655;28;20098;-71
2023/11/09 06:16:34;;;;;;;5.43;2.75;;;;;;;3.64;82.92;99676.56;5054731;28;20426;-71
2023/11/09 06:19:04;;;;;;;2.92;2.35;;;;;;;3.79;82.05;99676.13;5053590;28;20049;-71
2023/11/09 06:21:33;;;;;;;1.70;1.42;;;;;;;3.79;81.79;99687.06;5054200;28;20131;-71
2023/11/09 06:24:02;;;;;;;10.77;3.42;;;;;;;3.77;81.74;99683.63;5053431;28;20045;-72
2023/11/09 06:26:31;;;;;;;1.85;1.67;;;;;;;3.87;82.83;99695.69;5053384;28;20041;-69
2023/11/09 06:28:59;;;;;;;2.95;1.90;;;;;;;4.10;82.54;99687.84;5053685;28;20110;-70
2023/11/09 06:31:28;;;;;;;1.52;1.42;;;;;;;4.27;82.36;99689.13;5053658;28;20083;-71
2023/11/09 06:33:57;;;;;;;6.20;2.00;;;;;;;4.48;82.40;99687.09;5053423;28;20049;-70
2023/11/09 06:36:28;;;;;;;2.50;1.50;;;;;;;4.62;82.15;99690.78;5053632;28;20136;-71
2023/11/09 06:38:57;;;;;;;2.22;1.90;;;;;;;4.74;82.36;99693.59;5053674;28;20449;-71
2023/11/09 06:41:27;;;;;;;2.22;2.05;;;;;;;4.81;81.93;99692.06;5053226;28;20037;-71
2023/11/09 06:43:56;;;;;;;2.60;2.15;;;;;;;4.91;81.45;99683.88;5053385;28;20529;-70
2023/11/09 06:46:27;;;;;;;2.42;2.22;;;;;;;5.00;81.36;99695.03;5053411;28;20044;-70
2023/11/09 06:48:56;;;;;;;1.25;0.95;;;;;;;5.07;81.41;99686.75;5053418;28;20080;-70
2023/11/09 06:51:24;;;;;;;3.70;3.15;;;;;;;5.23;81.27;99687.94;5053090;28;20041;-70
2023/11/09 06:53:55;;;;;;;1.23;1.15;;;;;;;5.36;81.20;99685.66;5053761;28;20505;-72
2023/11/09 06:56:23;;;;;;;0.75;0.75;;;;;;;5.48;81.03;99684.19;5052818;28;20569;-72
2023/11/09 06:58:53;;;;;;;5.57;2.00;;;;;;;5.31;80.93;99646.78;5053162;28;20052;-72
2023/11/09 07:01:22;;;;;;;10.13;1.50;;;;;;;5.65;80.65;99678.63;5053193;28;20135;-72
2023/11/09 07:03:51;;;;;;;5.80;3.50;;;;;;;5.78;80.29;99687.31;5051881;28;20458;-72
2023/11/09 07:06:20;;;;;;;9.98;5.85;;;;;;;5.89;80.16;99683.31;5053286;28;20095;-70
2023/11/09 07:08:49;;;;;;;2.75;2.45;;;;;;;5.97;80.04;99684.31;5053033;28;20071;-72
2023/11/09 07:11:19;;;;;;;11.63;3.45;;;;;;;5.96;79.67;99691.06;5053652;28;20041;-71
2023/11/09 07:13:48;;;;;;;3.65;3.30;;;;;;;6.09;79.91;99692.13;5051481;28;20057;-70
2023/11/09 07:16:16;;;;;;;4.40;1.65;;;;;;;6.26;79.67;99683.13;5046345;28;20034;-70
2023/11/09 07:18:45;;;;;;;0.68;0.68;;;;;;;6.48;79.70;99682.63;5038353;28;20046;-71
2023/11/09 07:21:14;;;;;;;0.73;0.73;;;;;;;6.55;79.62;99681.88;5037024;28;20041;-70
2023/11/09 07:23:45;;;;;;;1.48;1.38;;;;;;;6.66;79.18;99682.91;5036756;28;20083;-73
2023/11/09 07:26:14;;;;;;;0.85;0.85;;;;;;;6.63;79.10;99682.88;5036946;28;20056;-72
2023/11/09 07:28:44;;;;;;;0.77;0.77;;;;;;;6.72;79.28;99688.06;5050749;28;20154;-73
2023/11/09 07:31:13;;;;;;;1.55;1.45;;;;;;;6.90;78.90;99684.09;5036980;28;20053;-71
2023/11/09 07:33:44;;;;;;;4.90;1.77;;;;;;;6.87;79.00;99648.53;5036654;28;20064;-71
2023/11/09 07:36:14;;;;;;;4.07;3.53;;;;;;;7.28;78.02;99690.53;5037274;28;20152;-71
2023/11/09 07:38:42;;;;;;;2.47;2.10;;;;;;;7.35;78.74;99684.69;5051710;28;20045;-72
2023/11/09 07:41:11;;;;;;;0.97;0.97;;;;;;;7.37;77.99;99666.09;5056613;28;20033;-72
2023/11/09 07:43:40;;;;;;;1.63;1.53;;;;;;;7.59;77.64;99695.13;5055490;28;20048;-72
2023/11/09 07:46:10;;;;;;;0.93;0.73;;;;;;;7.68;78.27;99692.69;5056446;28;20053;-72
2023/11/09 07:48:38;;;;;;;0.65;0.65;;;;;;;7.59;77.87;99690.06;5049580;28;20403;-70
2023/11/09 07:51:08;;;;;;;0.95;0.95;;;;;;;7.55;77.36;99690.88;5036017;28;20046;-71
2023/11/09 07:53:36;;;;;;;1.10;0.80;;;;;;;7.60;77.86;99674.00;5036287;28;20044;-72
2023/11/09 07:56:06;;;;;;;1.87;0.83;;;;;;;7.69;78.05;99684.25;5036510;28;20403;-72
2023/11/09 07:58:35;;;;;;;0.82;0.82;;;;;;;7.79;78.19;99670.81;5037686;28;20049;-72
2023/11/09 08:01:06;;;;;;;1.52;1.42;;;;;;;7.95;78.50;99677.72;5038207;28;20048;-74
2023/11/09 08:03:37;;;;;;;3.40;3.10;;;;;;;7.96;78.18;99679.44;5045107;28;20041;-69
2023/11/09 08:06:07;;;;;;;3.20;2.22;;;;;;;8.00;77.81;99683.72;5036989;28;20045;-69
2023/11/09 08:08:37;;;;;;;0.85;0.85;;;;;;;8.02;77.88;99679.50;5052290;28;20045;-72
2023/11/09 08:11:06;;;;;;;0.85;0.85;;;;;;;8.10;77.86;99677.88;5055921;28;20045;-72
2023/11/09 08:13:35;;;;;;;1.02;0.80;;;;;;;8.13;78.03;99682.97;5056178;28;20068;-72
2023/11/09 08:16:05;;;;;;;1.10;1.05;;;;;;;8.17;78.31;99676.25;5055887;28;20048;-70
2023/11/09 08:18:34;;;;;;;0.70;0.70;;;;;;;8.05;78.13;99669.38;5041826;28;20053;-71
2023/11/09 08:21:05;;;;;;;0.60;0.60;;;;;;;7.98;78.51;99677.78;5035975;28;20061;-70
2023/11/09 08:23:35;;;;;;;2.08;1.05;;;;;;;7.92;78.41;99672.63;5035823;28;20049;-70
2023/11/09 08:26:04;;;;;;;;;;;;;;;8.00;78.19;99673.56;5035566;28;20056;-70
2023/11/09 08:28:33;;;;;;;1.73;1.63;;;;;;;7.94;78.95;99650.59;5041467;28;19921;-71
2023/11/09 08:31:01;;;;;;;1.60;1.50;;;;;;;8.05;78.37;99664.28;5035089;28;20063;-70
2023/11/09 08:33:30;;;;;;;1.40;1.30;;;;;;;8.16;79.17;99655.91;5035688;28;20042;-70
2023/11/09 08:36:00;;;;;;;0.43;0.43;;;;;;;8.32;78.85;99658.63;5035530;28;20057;-70
2023/11/09 08:38:33;;;;;;;1.13;1.02;;;;;;;8.36;78.76;99659.47;5036014;28;20116;-70
2023/11/09 08:41:02;;;;;;;1.10;1.00;;;;;;;8.40;79.36;99662.03;5034731;28;20068;-70
2023/11/09 08:43:31;;;;;;;1.23;0.90;;;;;;;8.41;79.40;99650.19;5035363;28;20041;-70
2023/11/09 08:46:02;;;;;;;3.17;2.33;;;;;;;8.48;79.21;99649.38;5035750;28;20121;-70
2023/11/09 08:48:31;;;;;;;1.52;1.20;;;;;;;8.59;78.60;99647.78;5035177;28;20053;-70
2023/11/09 08:51:00;;;;;;;0.70;0.70;;;;;;;8.62;78.75;99650.31;5035047;28;20060;-70
2023/11/09 08:53:31;;;;;;;0.60;0.60;;;;;;;8.65;78.59;99645.28;5035155;28;20045;-70
2023/11/09 08:56:01;;;;;;;0.80;0.80;;;;;;;8.66;78.40;99639.34;5035084;28;20049;-70
2023/11/09 08:58:36;;;;;;;1.30;1.17;;;;;;;8.46;78.13;99600.22;5033974;28;20092;-69
2023/11/09 09:01:16;;;;;;;0.35;0.35;;;;;;;8.81;78.19;99634.34;5035142;28;20124;-70
2023/11/09 09:03:45;;;;;;;0.85;0.85;;;;;;;8.81;78.03;99634.34;5035043;28;20538;-71
2023/11/09 09:06:16;;;;;;;1.33;1.23;;;;;;;8.90;78.12;99629.28;5035557;28;20029;-70
2023/11/09 09:08:47;;;;;;;1.23;1.13;;;;;;;9.08;77.67;99639.56;5035265;28;20072;-73
2023/11/09 09:11:18;;;;;;;0.80;0.80;;;;;;;9.14;77.50;99629.41;5035186;28;20491;-72
2023/11/09 09:13:47;;;;;;;1.10;1.00;;;;;;;9.00;77.05;99580.13;5035089;28;20147;-73
2023/11/09 09:16:16;;;;;;;0.50;0.50;;;;;;;9.45;76.90;99626.13;5035404;28;20514;-71
2023/11/09 09:18:47;;;;;;;0.60;0.60;;;;;;;9.75;77.09;99612.59;5034492;28;20527;-71
2023/11/09 09:21:17;;;;;;;1.33;1.23;;;;;;;9.93;76.46;99599.03;5035054;28;20060;-71
2023/11/09 09:23:50;;;;;;;1.30;1.13;;;;;;;10.15;76.08;99605.84;5034661;28;20049;-71
2023/11/09 09:26:19;;;;;;;0.73;0.73;;;;;;;10.50;75.41;99604.13;5034790;28;20079;-71
2023/11/09 09:28:48;;;;;;;2.55;2.08;;;;;;;10.75;74.20;99605.75;5034330;28;20049;-73
2023/11/09 09:31:19;;;;;;;1.23;1.13;;;;;;;10.91;72.80;99610.81;5034887;28;20052;-71
2023/11/09 09:34:07;;;;;;;0.47;0.47;;;;;;;10.94;71.11;99610.81;5034499;28;20524;-72
2023/11/09 09:36:38;;;;;;;1.60;1.05;;;;;;;11.00;70.62;99609.09;5033541;28;20503;-71
2023/11/09 09:39:09;;;;;;;0.50;0.47;;;;;;;10.99;70.76;99604.00;5034094;28;20539;-70
2023/11/09 09:41:50;;;;;;;0.40;0.40;;;;;;;10.87;70.62;99593.81;5039405;28;20060;-69
2023/11/09 09:44:19;;;;;;;0.60;0.60;;;;;;;10.84;70.75;99598.94;5050255;28;20133;-71
2023/11/09 09:46:49;;;;;;;0.45;0.45;;;;;;;10.91;70.97;99590.41;5034663;28;20037;-73
2023/11/09 09:49:18;;;;;;;0.68;0.68;;;;;;;11.10;70.60;99592.03;5040278;28;20099;-71
2023/11/09 09:51:50;;;;;;;1.85;0.85;;;;;;;11.46;70.02;99586.72;5034299;28;20155;-73
2023/11/09 09:54:21;;;;;;;0.50;0.50;;;;;;;11.84;69.41;99589.06;5034512;28;20041;-72
2023/11/09 09:56:53;;;;;;;0.57;0.52;;;;;;;12.13;67.90;99591.38;5038289;28;20415;-73
2023/11/09 09:59:23;;;;;;;0.65;0.60;;;;;;;12.20;66.70;99577.69;5033998;28;20503;-72
2023/11/09 10:01:53;;;;;;;0.85;0.43;;;;;;;12.26;66.54;99582.75;5034214;28;20446;-72
2023/11/09 10:04:23;;;;;;;0.60;0.60;;;;;;;12.39;67.04;99574.94;5034108;28;20111;-72
2023/11/09 10:06:52;;;;;;;0.45;0.45;;;;;;;12.47;65.68;99562.06;5033714;28;20045;-70
2023/11/09 10:09:25;;;;;;;0.45;0.43;;;;;;;12.45;64.56;99554.38;5033845;28;20045;-73
2023/11/09 10:11:55;;;;;;;0.50;0.50;;;;;;;12.37;64.58;99529.75;5041950;28;20041;-72
2023/11/09 10:14:24;;;;;;;0.73;0.73;;;;;;;12.48;64.71;99522.78;5051274;28;20103;-71
2023/11/09 10:16:53;;;;;;;0.75;0.75;;;;;;;12.53;64.35;99536.38;5035488;28;20045;-71
2023/11/09 10:19:21;;;;;;;0.50;0.50;;;;;;;12.52;64.68;99529.59;5032986;28;20037;-73
2023/11/09 10:21:51;;;;;;;0.68;0.68;;;;;;;12.60;63.61;99526.06;5033996;28;20052;-72
2023/11/09 10:24:23;;;;;;;1.30;0.68;;;;;;;12.63;63.54;99523.47;5034549;28;20041;-72
2023/11/09 10:26:52;;;;;;;1.85;1.05;;;;;;;12.67;63.13;99521.72;5041963;28;20037;-69
2023/11/09 10:29:21;;;;;;;0.80;0.77;;;;;;;12.77;62.96;99519.03;5052097;28;20071;-73
2023/11/09 10:31:50;;;;;;;0.30;0.30;;;;;;;12.90;63.42;99511.19;5038795;28;20381;-69
2023/11/09 10:34:19;;;;;;;0.50;0.50;;;;;;;13.06;63.25;99518.69;5033651;28;20295;-75
2023/11/09 10:36:48;;;;;;;1.75;1.45;;;;;;;12.96;62.28;99480.38;5031498;28;20044;-72
2023/11/09 10:39:19;;;;;;;0.47;0.47;;;;;;;13.07;62.29;99494.78;5033732;28;20044;-70
2023/11/09 10:41:52;;;;;;;0.50;0.50;;;;;;;13.17;61.96;99495.50;5033483;28;20052;-71
2023/11/09 10:44:28;;;;;;;0.47;0.47;;;;;;;13.06;62.16;99477.69;5033409;28;20399;-71
2023/11/09 10:47:01;;;;;;;0.73;0.73;;;;;;;13.25;62.47;99480.84;5033489;28;20124;-72
2023/11/09 10:49:37;;;;;;;0.82;0.82;;;;;;;13.30;62.10;99467.09;5036228;28;20042;-71
2023/11/09 10:52:09;;;;;;;0.55;0.55;;;;;;;13.19;61.54;99460.44;5037363;28;20053;-74
2023/11/09 10:54:42;;;;;;;0.60;0.60;;;;;;;13.34;61.11;99484.13;5037223;28;20510;-70
2023/11/09 10:57:13;;;;;;;0.40;0.40;;;;;;;13.39;61.25;99492.59;5037422;28;20056;-69
2023/11/09 10:59:43;;;;;;;0.70;0.70;;;;;;;13.36;61.14;99469.56;5037943;28;20049;-71
2023/11/09 11:02:18;;;;;;;0.43;0.43;;;;;;;13.32;61.23;99473.03;5037293;28;20045;-70
2023/11/09 11:04:50;;;;;;;0.40;0.40;;;;;;;13.32;60.33;99469.63;5036952;28;20037;-72
2023/11/09 11:07:21;;;;;;;0.32;0.32;;;;;;;13.44;61.08;99456.63;5037684;28;20396;-71
2023/11/09 11:09:56;;;;;;;0.40;0.40;;;;;;;13.35;61.24;99460.19;5037353;28;20034;-70
2023/11/09 11:12:30;;;;;;;0.50;0.50;;;;;;;13.33;61.72;99436.28;5036031;28;20410;-70
2023/11/09 11:15:54;;;;;;;0.57;0.57;;;;;;;13.39;61.03;99456.69;5036846;28;20037;-70
2023/11/09 11:18:39;;;;;;;1.50;1.13;;;;;;;13.37;61.24;99455.88;5015770;28;20060;-71
2023/11/09 11:21:27;;;;;;;0.38;0.38;;;;;;;13.34;60.05;99453.34;5057247;28;20065;-72
2023/11/09 11:24:27;;;;;;;1.35;1.15;;;;;;;13.52;60.72;99446.25;5055449;28;20052;-69
2023/11/09 11:27:09;;;;;;;0.60;0.60;;;;;;;13.51;60.45;99449.69;5023340;28;20557;-72
2023/11/09 11:29:49;;;;;;;0.45;0.45;;;;;;;13.28;59.92;99422.69;5036643;28;20042;-73
2023/11/09 11:32:23;;;;;;;0.52;0.52;;;;;;;13.52;60.15;99441.13;5037321;28;20045;-68
2023/11/09 11:34:54;;;;;;;0.95;0.95;;;;;;;13.46;59.98;99436.09;5036683;28;20108;-72
2023/11/09 11:37:28;;;;;;;0.50;0.50;;;;;;;13.59;60.77;99432.44;5037143;28;20119;-73
2023/11/09 11:39:59;;;;;;;0.50;0.50;;;;;;;13.61;59.66;99430.69;5036999;28;20095;-72
2023/11/09 11:42:28;;;;;;;0.45;0.45;;;;;;;13.41;59.81;99393.41;5035195;28;20041;-70
2023/11/09 11:45:00;;;;;;;0.43;0.43;;;;;;;13.50;59.53;99419.78;5036875;28;20099;-69
2023/11/09 11:47:32;;;;;;;0.47;0.47;;;;;;;13.55;59.99;99418.84;5036880;28;20095;-71
2023/11/09 11:50:04;;;;;;;0.63;0.57;;;;;;;13.51;60.13;99430.00;5036610;28;20041;-71
2023/11/09 11:52:34;;;;;;;0.40;0.40;;;;;;;13.22;60.19;99438.16;5036399;28;20415;-73
2023/11/09 11:55:04;;;;;;;0.30;0.30;;;;;;;13.08;60.78;99428.97;5037293;28;20091;-73
2023/11/09 11:57:53;;;;;;;0.68;0.68;;;;;;;12.92;61.34;99428.34;5036577;28;20128;-74
2023/11/09 12:00:37;;;;;;;0.43;0.43;;;;;;;12.35;62.16;99368.53;5035433;28;20530;-73
2023/11/09 12:03:09;;;;;;;0.30;0.30;;;;;;;12.52;62.68;99406.72;5036185;28;20041;-72
2023/11/09 12:05:40;;;;;;;0.60;0.60;;;;;;;12.45;61.95;99397.41;5036055;28;20492;-70
2023/11/09 12:08:12;;;;;;;0.30;0.30;;;;;;;12.43;62.26;99411.97;5035791;28;20059;-73